sensor_id;sensor_type;location;lat;lon;timestamp;pressure;altitude;pressure_sealevel;temperature;humidity
42633;BME280;28261;53.304;-6.284;2023-04-19T00:01:05;102384.66;;;8.51;91.29
42633;BME280;28261;53.304;-6.284;2023-04-19T00:03:09;102389.13;;;8.49;92.04
42633;BME280;28261;53.304;-6.284;2023-04-19T00:05:14;102391.81;;;8.47;92.79
42633;BME280;28261;53.304;-6.284;2023-04-19T00:07:21;102392.72;;;8.44;92.45
42633;BME280;28261;53.304;-6.284;2023-04-19T00:09:25;102394.56;;;8.42;92.92
42633;BME280;28261;53.304;-6.284;2023-04-19T00:11:30;102392.84;;;8.41;93.34
42633;BME280;28261;53.304;-6.284;2023-04-19T00:13:34;102390.34;;;8.37;94.06
42633;BME280;28261;53.304;-6.284;2023-04-19T00:15:38;102387.75;;;8.35;93.62
42633;BME280;28261;53.304;-6.284;2023-04-19T00:17:42;102393.13;;;8.32;94.51
42633;BME280;28261;53.304;-6.284;2023-04-19T00:19:47;102402.00;;;8.29;94.79
42633;BME280;28261;53.304;-6.284;2023-04-19T00:21:51;102388.00;;;8.27;94.75
42633;BME280;28261;53.304;-6.284;2023-04-19T00:23:57;102397.72;;;8.25;95.45
42633;BME280;28261;53.304;-6.284;2023-04-19T00:26:02;102394.22;;;8.25;95.08
42633;BME280;28261;53.304;-6.284;2023-04-19T00:28:06;102384.66;;;8.21;94.90
42633;BME280;28261;53.304;-6.284;2023-04-19T00:30:11;102387.34;;;8.19;94.67
42633;BME280;28261;53.304;-6.284;2023-04-19T00:32:15;102386.56;;;8.16;94.38
42633;BME280;28261;53.304;-6.284;2023-04-19T00:34:20;102389.22;;;8.16;94.44
42633;BME280;28261;53.304;-6.284;2023-04-19T00:36:24;102384.94;;;8.11;94.85
42633;BME280;28261;53.304;-6.284;2023-04-19T00:38:28;102381.44;;;8.11;94.40
42633;BME280;28261;53.304;-6.284;2023-04-19T00:40:35;102383.28;;;8.07;94.30
42633;BME280;28261;53.304;-6.284;2023-04-19T00:42:39;102378.91;;;8.06;93.73
42633;BME280;28261;53.304;-6.284;2023-04-19T00:44:46;102371.94;;;8.05;94.19
42633;BME280;28261;53.304;-6.284;2023-04-19T00:46:50;102369.34;;;8.04;93.40
42633;BME280;28261;53.304;-6.284;2023-04-19T00:48:54;102379.13;;;8.00;92.96
42633;BME280;28261;53.304;-6.284;2023-04-19T00:50:59;102366.88;;;7.97;92.98
42633;BME280;28261;53.304;-6.284;2023-04-19T00:53:03;102359.00;;;7.96;92.68
42633;BME280;28261;53.304;-6.284;2023-04-19T00:55:08;102364.38;;;7.93;92.16
42633;BME280;28261;53.304;-6.284;2023-04-19T00:57:14;102361.72;;;7.93;92.01
42633;BME280;28261;53.304;-6.284;2023-04-19T00:59:20;102364.44;;;7.90;91.88
42633;BME280;28261;53.304;-6.284;2023-04-19T01:01:24;102367.13;;;7.88;91.85
42633;BME280;28261;53.304;-6.284;2023-04-19T01:03:28;102365.38;;;7.87;92.29
42633;BME280;28261;53.304;-6.284;2023-04-19T01:05:33;102372.47;;;7.87;92.09
42633;BME280;28261;53.304;-6.284;2023-04-19T01:07:37;102375.16;;;7.85;91.34
42633;BME280;28261;53.304;-6.284;2023-04-19T01:09:42;102377.84;;;7.84;91.76
42633;BME280;28261;53.304;-6.284;2023-04-19T01:11:47;102373.50;;;7.81;90.94
42633;BME280;28261;53.304;-6.284;2023-04-19T01:13:54;102380.56;;;7.81;90.96
42633;BME280;28261;53.304;-6.284;2023-04-19T01:16:00;102371.72;;;7.82;89.89
42633;BME280;28261;53.304;-6.284;2023-04-19T01:18:04;102373.56;;;7.79;89.64
42633;BME280;28261;53.304;-6.284;2023-04-19T01:20:09;102379.75;;;7.78;90.07
42633;BME280;28261;53.304;-6.284;2023-04-19T01:22:18;102370.03;;;7.79;89.96
42633;BME280;28261;53.304;-6.284;2023-04-19T01:24:23;102382.47;;;7.75;89.72
42633;BME280;28261;53.304;-6.284;2023-04-19T01:26:27;102372.81;;;7.74;90.09
42633;BME280;28261;53.304;-6.284;2023-04-19T01:28:30;102378.25;;;7.70;90.05
42633;BME280;28261;53.304;-6.284;2023-04-19T01:30:35;102379.19;;;7.67;90.35
42633;BME280;28261;53.304;-6.284;2023-04-19T01:32:40;102382.72;;;7.66;90.85
42633;BME280;28261;53.304;-6.284;2023-04-19T01:34:44;102393.28;;;7.66;90.48
42633;BME280;28261;53.304;-6.284;2023-04-19T01:36:48;102381.88;;;7.66;90.43
42633;BME280;28261;53.304;-6.284;2023-04-19T01:38:54;102380.19;;;7.63;90.88
42633;BME280;28261;53.304;-6.284;2023-04-19T01:40:58;102367.88;;;7.62;90.71
42633;BME280;28261;53.304;-6.284;2023-04-19T01:43:03;102376.66;;;7.62;91.02
42633;BME280;28261;53.304;-6.284;2023-04-19T01:45:07;102367.09;;;7.60;90.55
42633;BME280;28261;53.304;-6.284;2023-04-19T01:47:13;102364.47;;;7.58;90.69
42633;BME280;28261;53.304;-6.284;2023-04-19T01:49:17;102355.69;;;7.58;90.95
42633;BME280;28261;53.304;-6.284;2023-04-19T01:51:23;102368.09;;;7.54;91.05
42633;BME280;28261;53.304;-6.284;2023-04-19T01:53:28;102361.09;;;7.53;91.84
42633;BME280;28261;53.304;-6.284;2023-04-19T01:55:34;102359.38;;;7.52;92.48
42633;BME280;28261;53.304;-6.284;2023-04-19T01:57:38;102367.34;;;7.51;92.82
42633;BME280;28261;53.304;-6.284;2023-04-19T01:59:42;102349.81;;;7.48;92.71
42633;BME280;28261;53.304;-6.284;2023-04-19T02:01:46;102351.56;;;7.48;93.08
42633;BME280;28261;53.304;-6.284;2023-04-19T02:03:52;102358.66;;;7.45;93.32
42633;BME280;28261;53.304;-6.284;2023-04-19T02:05:56;102351.66;;;7.44;93.41
42633;BME280;28261;53.304;-6.284;2023-04-19T02:08:01;102340.28;;;7.42;93.15
42633;BME280;28261;53.304;-6.284;2023-04-19T02:10:08;102353.47;;;7.42;93.12
42633;BME280;28261;53.304;-6.284;2023-04-19T02:12:14;102348.28;;;7.39;93.64
42633;BME280;28261;53.304;-6.284;2023-04-19T02:14:18;102339.50;;;7.39;93.52
42633;BME280;28261;53.304;-6.284;2023-04-19T02:16:23;102345.72;;;7.36;92.96
42633;BME280;28261;53.304;-6.284;2023-04-19T02:18:27;102332.63;;;7.33;93.23
42633;BME280;28261;53.304;-6.284;2023-04-19T02:20:32;102326.50;;;7.33;93.17
42633;BME280;28261;53.304;-6.284;2023-04-19T02:22:36;102323.88;;;7.31;93.85
42633;BME280;28261;53.304;-6.284;2023-04-19T02:24:40;102330.09;;;7.30;93.96
42633;BME280;28261;53.304;-6.284;2023-04-19T02:26:44;102322.22;;;7.28;94.94
42633;BME280;28261;53.304;-6.284;2023-04-19T02:28:51;102323.13;;;7.27;95.32
42633;BME280;28261;53.304;-6.284;2023-04-19T02:30:56;102313.50;;;7.25;96.19
42633;BME280;28261;53.304;-6.284;2023-04-19T02:33:02;102322.31;;;7.24;96.32
42633;BME280;28261;53.304;-6.284;2023-04-19T02:35:08;102312.72;;;7.21;96.67
42633;BME280;28261;53.304;-6.284;2023-04-19T02:37:12;102315.41;;;7.20;96.65
42633;BME280;28261;53.304;-6.284;2023-04-19T02:39:17;102322.50;;;7.18;96.07
42633;BME280;28261;53.304;-6.284;2023-04-19T02:41:21;102322.50;;;7.18;96.17
42633;BME280;28261;53.304;-6.284;2023-04-19T02:43:25;102327.88;;;7.13;96.00
42633;BME280;28261;53.304;-6.284;2023-04-19T02:45:31;102314.69;;;7.13;95.34
42633;BME280;28261;53.304;-6.284;2023-04-19T02:47:35;102312.09;;;7.11;95.18
42633;BME280;28261;53.304;-6.284;2023-04-19T02:49:39;102299.81;;;7.10;94.57
42633;BME280;28261;53.304;-6.284;2023-04-19T02:51:45;102298.13;;;7.09;94.31
42633;BME280;28261;53.304;-6.284;2023-04-19T02:53:49;102297.31;;;7.06;94.40
42633;BME280;28261;53.304;-6.284;2023-04-19T02:55:53;102299.09;;;7.05;94.75
42633;BME280;28261;53.304;-6.284;2023-04-19T02:57:58;102277.16;;;7.03;94.89
42633;BME280;28261;53.304;-6.284;2023-04-19T03:00:02;102282.44;;;7.03;95.11
42633;BME280;28261;53.304;-6.284;2023-04-19T03:02:09;102275.44;;;7.02;95.46
42633;BME280;28261;53.304;-6.284;2023-04-19T03:04:13;102285.16;;;7.00;95.55
42633;BME280;28261;53.304;-6.284;2023-04-19T03:06:19;102285.16;;;7.00;96.05
42633;BME280;28261;53.304;-6.284;2023-04-19T03:08:23;102282.53;;;7.00;96.11
42633;BME280;28261;53.304;-6.284;2023-04-19T03:10:27;102290.44;;;7.00;96.35
42633;BME280;28261;53.304;-6.284;2023-04-19T03:12:31;102286.91;;;7.00;96.52
42633;BME280;28261;53.304;-6.284;2023-04-19T03:14:35;102284.28;;;7.00;96.90
42633;BME280;28261;53.304;-6.284;2023-04-19T03:16:41;102279.06;;;6.98;97.14
42633;BME280;28261;53.304;-6.284;2023-04-19T03:18:47;102275.53;;;6.99;97.15
42633;BME280;28261;53.304;-6.284;2023-04-19T03:20:54;102269.44;;;6.97;97.13
42633;BME280;28261;53.304;-6.284;2023-04-19T03:23:02;102266.81;;;6.97;97.42
42633;BME280;28261;53.304;-6.284;2023-04-19T03:25:08;102280.00;;;6.97;97.42
42633;BME280;28261;53.304;-6.284;2023-04-19T03:27:16;102280.88;;;6.96;97.48
42633;BME280;28261;53.304;-6.284;2023-04-19T03:29:25;102287.00;;;6.97;97.22
42633;BME280;28261;53.304;-6.284;2023-04-19T03:31:39;102286.16;;;6.96;97.48
42633;BME280;28261;53.304;-6.284;2023-04-19T03:33:48;102269.50;;;6.94;97.47
42633;BME280;28261;53.304;-6.284;2023-04-19T03:35:54;102275.72;;;6.91;97.92
42633;BME280;28261;53.304;-6.284;2023-04-19T03:37:58;102289.78;;;6.92;97.01
42633;BME280;28261;53.304;-6.284;2023-04-19T03:40:03;102290.59;;;6.94;96.56
42633;BME280;28261;53.304;-6.284;2023-04-19T03:42:08;102293.22;;;6.94;96.91
42633;BME280;28261;53.304;-6.284;2023-04-19T03:44:24;102289.69;;;6.95;96.97
42633;BME280;28261;53.304;-6.284;2023-04-19T03:46:28;102283.53;;;6.96;96.66
42633;BME280;28261;53.304;-6.284;2023-04-19T03:48:34;102281.75;;;6.97;96.32
42633;BME280;28261;53.304;-6.284;2023-04-19T03:50:39;102270.25;;;6.99;96.35
42633;BME280;28261;53.304;-6.284;2023-04-19T03:52:48;102263.19;;;7.00;96.74
42633;BME280;28261;53.304;-6.284;2023-04-19T03:54:52;102270.25;;;6.99;97.35
42633;BME280;28261;53.304;-6.284;2023-04-19T03:57:07;102273.72;;;7.01;97.00
42633;BME280;28261;53.304;-6.284;2023-04-19T03:59:13;102276.38;;;7.01;96.91
42633;BME280;28261;53.304;-6.284;2023-04-19T04:01:18;102274.56;;;7.02;97.30
42633;BME280;28261;53.304;-6.284;2023-04-19T04:03:23;102275.47;;;7.01;97.29
42633;BME280;28261;53.304;-6.284;2023-04-19T04:05:28;102280.69;;;7.02;97.74
42633;BME280;28261;53.304;-6.284;2023-04-19T04:07:33;102280.75;;;7.01;97.51
42633;BME280;28261;53.304;-6.284;2023-04-19T04:09:38;102276.31;;;7.03;97.66
42633;BME280;28261;53.304;-6.284;2023-04-19T04:11:42;102281.59;;;7.03;97.81
42633;BME280;28261;53.304;-6.284;2023-04-19T04:13:46;102278.91;;;7.04;97.74
42633;BME280;28261;53.304;-6.284;2023-04-19T04:15:56;102269.16;;;7.06;98.16
42633;BME280;28261;53.304;-6.284;2023-04-19T04:17:59;102270.09;;;7.05;98.04
42633;BME280;28261;53.304;-6.284;2023-04-19T04:20:04;102271.91;;;7.03;98.10
42633;BME280;28261;53.304;-6.284;2023-04-19T04:22:10;102279.75;;;7.05;98.60
42633;BME280;28261;53.304;-6.284;2023-04-19T04:24:17;102278.91;;;7.04;98.67
42633;BME280;28261;53.304;-6.284;2023-04-19T04:26:56;102284.09;;;7.07;98.67
42633;BME280;28261;53.304;-6.284;2023-04-19T04:29:04;102289.34;;;7.07;98.72
42633;BME280;28261;53.304;-6.284;2023-04-19T04:31:08;102283.19;;;7.08;99.08
42633;BME280;28261;53.304;-6.284;2023-04-19T04:33:15;102296.28;;;7.11;99.20
42633;BME280;28261;53.304;-6.284;2023-04-19T04:35:19;102305.03;;;7.14;99.23
42633;BME280;28261;53.304;-6.284;2023-04-19T04:37:31;102300.56;;;7.16;99.41
42633;BME280;28261;53.304;-6.284;2023-04-19T04:39:37;102306.69;;;7.18;100.00
42633;BME280;28261;53.304;-6.284;2023-04-19T04:41:43;102294.31;;;7.20;100.00
42633;BME280;28261;53.304;-6.284;2023-04-19T04:43:47;102302.22;;;7.20;100.00
42633;BME280;28261;53.304;-6.284;2023-04-19T04:46:13;102293.41;;;7.21;100.00
42633;BME280;28261;53.304;-6.284;2023-04-19T04:48:17;102299.56;;;7.20;100.00
42633;BME280;28261;53.304;-6.284;2023-04-19T04:50:21;102292.50;;;7.22;100.00
42633;BME280;28261;53.304;-6.284;2023-04-19T04:52:25;102282.00;;;7.19;100.00
42633;BME280;28261;53.304;-6.284;2023-04-19T04:54:54;102291.75;;;7.17;100.00
42633;BME280;28261;53.304;-6.284;2023-04-19T04:57:04;102278.63;;;7.15;100.00
42633;BME280;28261;53.304;-6.284;2023-04-19T04:59:08;102274.19;;;7.16;100.00
42633;BME280;28261;53.304;-6.284;2023-04-19T05:01:17;102272.44;;;7.15;100.00
42633;BME280;28261;53.304;-6.284;2023-04-19T05:03:23;102275.09;;;7.15;100.00
42633;BME280;28261;53.304;-6.284;2023-04-19T05:05:33;102257.56;;;7.14;100.00
42633;BME280;28261;53.304;-6.284;2023-04-19T05:07:38;102258.41;;;7.14;100.00
42633;BME280;28261;53.304;-6.284;2023-04-19T05:09:42;102268.03;;;7.17;100.00
42633;BME280;28261;53.304;-6.284;2023-04-19T05:11:52;102270.66;;;7.17;100.00
42633;BME280;28261;53.304;-6.284;2023-04-19T05:13:58;102275.09;;;7.15;100.00
42633;BME280;28261;53.304;-6.284;2023-04-19T05:16:02;102278.56;;;7.17;99.88
42633;BME280;28261;53.304;-6.284;2023-04-19T05:18:07;102287.38;;;7.16;99.92
42633;BME280;28261;53.304;-6.284;2023-04-19T05:20:11;102295.16;;;7.20;100.00
42633;BME280;28261;53.304;-6.284;2023-04-19T05:22:17;102296.09;;;7.19;99.71
42633;BME280;28261;53.304;-6.284;2023-04-19T05:24:21;102298.72;;;7.19;98.48
42633;BME280;28261;53.304;-6.284;2023-04-19T05:26:26;102294.38;;;7.17;98.36
42633;BME280;28261;53.304;-6.284;2023-04-19T05:28:31;102296.13;;;7.18;98.11
42633;BME280;28261;53.304;-6.284;2023-04-19T05:30:41;102297.03;;;7.17;97.69
42633;BME280;28261;53.304;-6.284;2023-04-19T05:32:46;102288.22;;;7.18;97.78
42633;BME280;28261;53.304;-6.284;2023-04-19T05:34:52;102294.38;;;7.17;97.78
42633;BME280;28261;53.304;-6.284;2023-04-19T05:36:57;102294.38;;;7.17;97.95
42633;BME280;28261;53.304;-6.284;2023-04-19T05:39:01;102300.53;;;7.17;98.05
42633;BME280;28261;53.304;-6.284;2023-04-19T05:41:05;102301.41;;;7.18;98.36
42633;BME280;28261;53.304;-6.284;2023-04-19T05:43:09;102302.25;;;7.18;97.95
42633;BME280;28261;53.304;-6.284;2023-04-19T05:45:15;102302.25;;;7.18;98.77
42633;BME280;28261;53.304;-6.284;2023-04-19T05:47:20;102309.28;;;7.19;98.32
42633;BME280;28261;53.304;-6.284;2023-04-19T05:49:42;102298.72;;;7.19;98.80
42633;BME280;28261;53.304;-6.284;2023-04-19T05:51:53;102305.78;;;7.17;99.22
42633;BME280;28261;53.304;-6.284;2023-04-19T05:54:21;102305.78;;;7.17;99.44
42633;BME280;28261;53.304;-6.284;2023-04-19T05:56:25;102304.91;;;7.18;99.58
42633;BME280;28261;53.304;-6.284;2023-04-19T05:58:30;102302.25;;;7.18;99.73
42633;BME280;28261;53.304;-6.284;2023-04-19T06:00:36;102297.84;;;7.19;99.88
42633;BME280;28261;53.304;-6.284;2023-04-19T06:02:45;102303.06;;;7.22;99.65
42633;BME280;28261;53.304;-6.284;2023-04-19T06:04:50;102298.63;;;7.22;99.25
42633;BME280;28261;53.304;-6.284;2023-04-19T06:06:54;102296.84;;;7.23;99.15
42633;BME280;28261;53.304;-6.284;2023-04-19T06:08:59;102298.63;;;7.22;99.11
42633;BME280;28261;53.304;-6.284;2023-04-19T06:11:03;102299.44;;;7.24;99.39
42633;BME280;28261;53.304;-6.284;2023-04-19T06:13:25;102300.22;;;7.28;99.05
42633;BME280;28261;53.304;-6.284;2023-04-19T06:15:30;102282.66;;;7.27;98.18
42633;BME280;28261;53.304;-6.284;2023-04-19T06:17:35;102294.16;;;7.26;97.97
42633;BME280;28261;53.304;-6.284;2023-04-19T06:19:39;102304.66;;;7.27;97.54
42633;BME280;28261;53.304;-6.284;2023-04-19T06:21:43;102289.72;;;7.26;97.62
42633;BME280;28261;53.304;-6.284;2023-04-19T06:23:48;102298.50;;;7.27;98.03
42633;BME280;28261;53.304;-6.284;2023-04-19T06:25:52;102297.59;;;7.28;98.46
42633;BME280;28261;53.304;-6.284;2023-04-19T06:27:57;102309.84;;;7.31;98.44
42633;BME280;28261;53.304;-6.284;2023-04-19T06:30:00;102309.69;;;7.35;98.22
42633;BME280;28261;53.304;-6.284;2023-04-19T06:32:04;102298.34;;;7.33;98.39
42633;BME280;28261;53.304;-6.284;2023-04-19T06:34:10;102306.16;;;7.36;97.98
42633;BME280;28261;53.304;-6.284;2023-04-19T06:36:14;102309.69;;;7.35;98.23
42633;BME280;28261;53.304;-6.284;2023-04-19T06:38:18;102296.44;;;7.38;98.08
42633;BME280;28261;53.304;-6.284;2023-04-19T06:40:22;102292.97;;;7.36;98.45
42633;BME280;28261;53.304;-6.284;2023-04-19T06:42:26;102286.78;;;7.37;98.33
42633;BME280;28261;53.304;-6.284;2023-04-19T06:44:31;102308.78;;;7.36;97.97
42633;BME280;28261;53.304;-6.284;2023-04-19T06:46:35;102297.34;;;7.37;97.30
42633;BME280;28261;53.304;-6.284;2023-04-19T06:48:40;102300.03;;;7.36;98.03
42633;BME280;28261;53.304;-6.284;2023-04-19T06:50:46;102301.72;;;7.38;97.37
42633;BME280;28261;53.304;-6.284;2023-04-19T06:52:51;102297.16;;;7.43;97.36
42633;BME280;28261;53.304;-6.284;2023-04-19T06:54:55;102301.66;;;7.40;96.94
42633;BME280;28261;53.304;-6.284;2023-04-19T06:57:00;102293.69;;;7.41;96.77
42633;BME280;28261;53.304;-6.284;2023-04-19T06:59:05;102291.88;;;7.43;96.86
42633;BME280;28261;53.304;-6.284;2023-04-19T07:01:10;102296.25;;;7.44;97.27
42633;BME280;28261;53.304;-6.284;2023-04-19T07:03:14;102306.75;;;7.46;97.35
42633;BME280;28261;53.304;-6.284;2023-04-19T07:05:19;102303.06;;;7.52;96.90
42633;BME280;28261;53.304;-6.284;2023-04-19T07:07:26;102296.84;;;7.54;97.37
42633;BME280;28261;53.304;-6.284;2023-04-19T07:09:30;102304.75;;;7.54;96.85
42633;BME280;28261;53.304;-6.284;2023-04-19T07:11:35;102310.91;;;7.55;96.97
42633;BME280;28261;53.304;-6.284;2023-04-19T07:13:39;102310.97;;;7.52;97.01
42633;BME280;28261;53.304;-6.284;2023-04-19T07:15:44;102318.94;;;7.50;96.96
42633;BME280;28261;53.304;-6.284;2023-04-19T07:17:49;102318.91;;;7.52;97.32
42633;BME280;28261;53.304;-6.284;2023-04-19T07:19:53;102317.16;;;7.52;97.14
42633;BME280;28261;53.304;-6.284;2023-04-19T07:21:58;102317.06;;;7.55;97.20
42633;BME280;28261;53.304;-6.284;2023-04-19T07:24:04;102318.78;;;7.56;96.94
42633;BME280;28261;53.304;-6.284;2023-04-19T07:26:09;102318.00;;;7.53;96.35
42633;BME280;28261;53.304;-6.284;2023-04-19T07:28:13;102303.91;;;7.54;96.09
42633;BME280;28261;53.304;-6.284;2023-04-19T07:30:18;102304.03;;;7.49;96.20
42633;BME280;28261;53.304;-6.284;2023-04-19T07:32:22;102298.72;;;7.51;96.48
42633;BME280;28261;53.304;-6.284;2023-04-19T07:34:26;102303.13;;;7.50;96.61
42633;BME280;28261;53.304;-6.284;2023-04-19T07:36:31;102301.41;;;7.49;97.14
42633;BME280;28261;53.304;-6.284;2023-04-19T07:38:36;102298.63;;;7.54;96.91
42633;BME280;28261;53.304;-6.284;2023-04-19T07:40:42;102309.28;;;7.51;96.90
42633;BME280;28261;53.304;-6.284;2023-04-19T07:42:46;102296.88;;;7.53;96.69
42633;BME280;28261;53.304;-6.284;2023-04-19T07:44:50;102304.81;;;7.53;97.18
42633;BME280;28261;53.304;-6.284;2023-04-19T07:46:54;102310.91;;;7.55;97.34
42633;BME280;28261;53.304;-6.284;2023-04-19T07:48:58;102309.97;;;7.57;97.61
42633;BME280;28261;53.304;-6.284;2023-04-19T07:51:08;102315.00;;;7.65;97.20
42633;BME280;28261;53.304;-6.284;2023-04-19T07:53:12;102303.44;;;7.69;96.77
42633;BME280;28261;53.304;-6.284;2023-04-19T07:55:18;102311.47;;;7.66;96.34
42633;BME280;28261;53.304;-6.284;2023-04-19T07:57:24;102307.81;;;7.70;96.84
42633;BME280;28261;53.304;-6.284;2023-04-19T07:59:28;102305.00;;;7.76;97.07
42633;BME280;28261;53.304;-6.284;2023-04-19T08:01:34;102313.72;;;7.78;97.14
42633;BME280;28261;53.304;-6.284;2023-04-19T08:03:39;102305.75;;;7.80;96.50
42633;BME280;28261;53.304;-6.284;2023-04-19T08:05:44;102310.19;;;7.79;95.99
42633;BME280;28261;53.304;-6.284;2023-04-19T08:07:50;102314.69;;;7.76;97.22
42633;BME280;28261;53.304;-6.284;2023-04-19T08:09:55;102315.44;;;7.81;96.42
42633;BME280;28261;53.304;-6.284;2023-04-19T08:11:59;102308.47;;;7.78;96.78
42633;BME280;28261;53.304;-6.284;2023-04-19T08:14:05;102319.91;;;7.77;97.55
42633;BME280;28261;53.304;-6.284;2023-04-19T08:16:28;102306.44;;;7.87;97.17
42633;BME280;28261;53.304;-6.284;2023-04-19T08:18:35;102323.16;;;7.87;97.16
42633;BME280;28261;53.304;-6.284;2023-04-19T08:20:39;102314.19;;;7.93;96.72
42633;BME280;28261;53.304;-6.284;2023-04-19T08:22:43;102323.88;;;7.92;96.94
42633;BME280;28261;53.304;-6.284;2023-04-19T08:24:48;102315.09;;;7.92;96.15
42633;BME280;28261;53.304;-6.284;2023-04-19T08:26:53;102319.59;;;7.88;97.30
42633;BME280;28261;53.304;-6.284;2023-04-19T08:29:00;102315.22;;;7.89;96.84
42633;BME280;28261;53.304;-6.284;2023-04-19T08:31:06;102325.66;;;7.92;97.72
42633;BME280;28261;53.304;-6.284;2023-04-19T08:33:10;102326.56;;;7.91;97.32
42633;BME280;28261;53.304;-6.284;2023-04-19T08:35:14;102329.09;;;7.94;97.58
42633;BME280;28261;53.304;-6.284;2023-04-19T08:37:18;102318.28;;;8.03;97.73
42633;BME280;28261;53.304;-6.284;2023-04-19T08:39:23;102319.91;;;8.07;97.09
42633;BME280;28261;53.304;-6.284;2023-04-19T08:41:35;102319.72;;;8.13;96.92
42633;BME280;28261;53.304;-6.284;2023-04-19T08:43:40;102328.66;;;8.09;96.74
42633;BME280;28261;53.304;-6.284;2023-04-19T08:45:47;102310.22;;;8.08;96.85
42633;BME280;28261;53.304;-6.284;2023-04-19T08:47:55;102316.50;;;8.04;97.19
42633;BME280;28261;53.304;-6.284;2023-04-19T08:50:06;102308.53;;;8.05;97.89
42633;BME280;28261;53.304;-6.284;2023-04-19T08:52:32;102307.66;;;8.05;97.15
42633;BME280;28261;53.304;-6.284;2023-04-19T08:54:56;102308.66;;;8.01;98.17
42633;BME280;28261;53.304;-6.284;2023-04-19T08:57:01;102306.03;;;8.01;98.54
42633;BME280;28261;53.304;-6.284;2023-04-19T08:59:06;102319.91;;;8.07;98.21
42633;BME280;28261;53.304;-6.284;2023-04-19T09:01:20;102313.50;;;8.16;97.83
42633;BME280;28261;53.304;-6.284;2023-04-19T09:03:43;102326.50;;;8.22;97.81
42633;BME280;28261;53.304;-6.284;2023-04-19T09:06:02;102324.53;;;8.29;98.00
42633;BME280;28261;53.304;-6.284;2023-04-19T09:10:32;102327.13;;;8.30;97.48
42633;BME280;28261;53.304;-6.284;2023-04-19T09:12:36;102324.38;;;8.34;97.77
42633;BME280;28261;53.304;-6.284;2023-04-19T09:14:43;102320.00;;;8.33;98.32
42633;BME280;28261;53.304;-6.284;2023-04-19T09:17:19;102327.13;;;8.30;98.14
42633;BME280;28261;53.304;-6.284;2023-04-19T09:19:25;102312.78;;;8.38;98.13
42633;BME280;28261;53.304;-6.284;2023-04-19T09:21:30;102320.88;;;8.33;98.30
42633;BME280;28261;53.304;-6.284;2023-04-19T09:23:34;102313.78;;;8.35;98.04
42633;BME280;28261;53.304;-6.284;2023-04-19T09:25:52;102314.41;;;8.42;98.12
42633;BME280;28261;53.304;-6.284;2023-04-19T09:28:18;102317.00;;;8.45;97.34
42633;BME280;28261;53.304;-6.284;2023-04-19T09:30:24;102306.59;;;8.39;97.88
42633;BME280;28261;53.304;-6.284;2023-04-19T09:32:45;102314.69;;;8.34;98.42
42633;BME280;28261;53.304;-6.284;2023-04-19T09:34:53;102318.06;;;8.38;97.90
42633;BME280;28261;53.304;-6.284;2023-04-19T09:37:11;102317.09;;;8.40;98.07
42633;BME280;28261;53.304;-6.284;2023-04-19T09:39:34;102308.31;;;8.40;99.11
42633;BME280;28261;53.304;-6.284;2023-04-19T09:41:49;102311.75;;;8.43;98.46
42633;BME280;28261;53.304;-6.284;2023-04-19T09:43:53;102309.13;;;8.42;98.44
42633;BME280;28261;53.304;-6.284;2023-04-19T09:46:31;102308.28;;;8.41;98.55
42633;BME280;28261;53.304;-6.284;2023-04-19T09:48:35;102317.09;;;8.40;98.87
42633;BME280;28261;53.304;-6.284;2023-04-19T09:50:55;102306.53;;;8.40;98.64
42633;BME280;28261;53.304;-6.284;2023-04-19T09:53:07;102312.59;;;8.44;98.35
42633;BME280;28261;53.304;-6.284;2023-04-19T09:55:13;102330.25;;;8.43;99.29
42633;BME280;28261;53.304;-6.284;2023-04-19T09:57:30;102312.56;;;8.45;98.38
42633;BME280;28261;53.304;-6.284;2023-04-19T09:59:34;102316.06;;;8.48;97.97
42633;BME280;28261;53.304;-6.284;2023-04-19T10:01:39;102311.75;;;8.43;98.76
42633;BME280;28261;53.304;-6.284;2023-04-19T10:03:48;102314.38;;;8.43;98.64
42633;BME280;28261;53.304;-6.284;2023-04-19T10:05:56;102306.38;;;8.46;99.00
42633;BME280;28261;53.304;-6.284;2023-04-19T10:08:11;102299.44;;;8.42;99.01
42633;BME280;28261;53.304;-6.284;2023-04-19T10:10:16;102310.13;;;8.39;99.99
42633;BME280;28261;53.304;-6.284;2023-04-19T10:12:25;102306.53;;;8.40;100.00
42633;BME280;28261;53.304;-6.284;2023-04-19T10:14:49;102313.59;;;8.40;100.00
42633;BME280;28261;53.304;-6.284;2023-04-19T10:16:55;102309.09;;;8.45;100.00
42633;BME280;28261;53.304;-6.284;2023-04-19T10:19:01;102306.16;;;8.53;100.00
42633;BME280;28261;53.304;-6.284;2023-04-19T10:21:08;102304.19;;;8.59;100.00
42633;BME280;28261;53.304;-6.284;2023-04-19T10:23:13;102320.00;;;8.61;100.00
42633;BME280;28261;53.304;-6.284;2023-04-19T10:25:17;102316.44;;;8.62;100.00
42633;BME280;28261;53.304;-6.284;2023-04-19T10:27:24;102307.59;;;8.63;99.91
42633;BME280;28261;53.304;-6.284;2023-04-19T10:29:55;102310.31;;;8.61;99.66
42633;BME280;28261;53.304;-6.284;2023-04-19T10:32:03;102312.28;;;8.55;99.83
42633;BME280;28261;53.304;-6.284;2023-04-19T10:34:07;102315.72;;;8.57;99.75
42633;BME280;28261;53.304;-6.284;2023-04-19T10:36:14;102313.91;;;8.59;99.88
42633;BME280;28261;53.304;-6.284;2023-04-19T10:38:19;102310.25;;;8.63;100.00
42633;BME280;28261;53.304;-6.284;2023-04-19T10:40:53;102319.09;;;8.62;100.00
42633;BME280;28261;53.304;-6.284;2023-04-19T10:43:13;102315.63;;;8.60;99.19
42633;BME280;28261;53.304;-6.284;2023-04-19T10:45:33;102318.28;;;8.60;99.55
42633;BME280;28261;53.304;-6.284;2023-04-19T10:47:40;102321.53;;;8.68;99.32
42633;BME280;28261;53.304;-6.284;2023-04-19T10:49:45;102317.03;;;8.70;98.75
42633;BME280;28261;53.304;-6.284;2023-04-19T10:51:50;102308.44;;;8.63;99.37
42633;BME280;28261;53.304;-6.284;2023-04-19T10:53:57;102308.50;;;8.62;99.70
42633;BME280;28261;53.304;-6.284;2023-04-19T10:56:01;102313.00;;;8.60;100.00
42633;BME280;28261;53.304;-6.284;2023-04-19T10:58:06;102302.19;;;8.66;100.00
42633;BME280;28261;53.304;-6.284;2023-04-19T11:00:19;102308.31;;;8.68;99.83
42633;BME280;28261;53.304;-6.284;2023-04-19T11:02:27;102303.94;;;8.67;100.00
42633;BME280;28261;53.304;-6.284;2023-04-19T11:07:17;102309.41;;;8.61;100.00